FDSK

Sikhuphe International Airport

Swaziland
METAR FDSK 201500Z 01006KT CAVOK 30/08 Q1012
Observed Flight Rules
Aug-20 @ 15:00 UTC (9 hours ago) Visual Flight Rules
Wind Visibility Clouds
10° at 6 knots 10,000+ meters
  • Clear skies
Temperatures Readings
Current 30°C / 86°F
Dewpoint 8°C / 46°F
Humidity 25%
Altimeter 29.88" Hg
Pressure 1012 hPa
Elevation 324
METAR FDSK 201500Z 01006KT CAVOK 30/08 Q1012
Observed Flight Rules
Aug-20 @ 15:00 UTC
(9 hours ago)
VFR
Wind Visibility
10° at 6 knots 10,000+ meters
Clouds
  • Clear skies
Temperature Dewpoint
30°C / 86°F 8°C / 46°F
Humidity Altimeter Pressure
25% 29.88" Hg 1012 hPa